Time;durP1;ratioP1;P1;durP2;ratioP2;P2;SDS_P1;SDS_P2;PMS_P1;PMS_P2;Temp;Humidity;BMP_temperature;BMP_pressure;BME280_temperature;BME280_humidity;BME280_pressure;Samples;Min_cycle;Max_cycle;Signal;HPM_P1;HPM_P2
2021/09/21 00:00:00;;;;;;;3.83;3.02;;;;;;;8.24;90.62;100553.81;1725690;83;21307;-70
2021/09/21 00:02:34;;;;;;;5.70;3.33;;;;;;;8.22;90.71;100550.48;1726971;83;21284;-70
2021/09/21 00:05:08;;;;;;;;;;;;;;;8.23;90.96;100541.73;1728417;83;21289;-70
2021/09/21 00:07:41;;;;;;;7.65;2.92;;;;;;;8.24;91.06;100550.39;1725691;83;20176;-70
2021/09/21 00:10:14;;;;;;;5.28;3.62;;;;;;;8.21;91.10;100553.22;1725970;83;21197;-70
2021/09/21 00:12:48;;;;;;;5.08;3.22;;;;;;;8.18;91.11;100552.14;1727711;83;21131;-70
2021/09/21 00:15:22;;;;;;;3.65;2.80;;;;;;;8.18;91.25;100551.67;1725813;83;21176;-70
2021/09/21 00:17:55;;;;;;;14.90;3.37;;;;;;;8.19;91.31;100550.74;1727576;83;21197;-70
2021/09/21 00:20:29;;;;;;;;;;;;;;;8.18;91.24;100550.83;1728220;83;21166;-70
2021/09/21 00:23:02;;;;;;;3.87;3.02;;;;;;;8.14;91.11;100541.12;1725548;83;20168;-70
2021/09/21 00:25:36;;;;;;;4.00;3.40;;;;;;;8.09;91.05;100536.71;1725716;83;21189;-70
2021/09/21 00:28:09;;;;;;;4.30;3.27;;;;;;;8.05;91.03;100536.09;1727708;83;21130;-70
2021/09/21 00:30:47;;;;;;;;;;;;;;;8.03;90.99;100541.05;1726770;81;21685;-69
2021/09/21 00:33:23;;;;;;;11.00;3.40;;;;;;;7.99;90.93;100543.54;1724517;83;20175;-70
2021/09/21 00:35:56;;;;;;;3.35;3.02;;;;;;;7.94;91.11;100546.95;1696764;84;21279;-70
2021/09/21 00:38:29;;;;;;;3.87;3.20;;;;;;;7.93;91.18;100555.70;1697521;81;21298;-69
2021/09/21 00:41:02;;;;;;;5.42;3.05;;;;;;;7.90;91.24;100548.13;1724527;83;21199;-70
2021/09/21 00:43:36;;;;;;;3.83;2.98;;;;;;;7.90;91.38;100558.56;1723765;83;21154;-70
2021/09/21 00:46:10;;;;;;;3.20;2.85;;;;;;;7.90;91.51;100559.39;1726011;83;21276;-70
2021/09/21 00:48:42;;;;;;;4.03;2.87;;;;;;;7.91;91.65;100558.90;1726409;83;21201;-70
2021/09/21 00:51:15;;;;;;;5.77;3.13;;;;;;;7.92;91.77;100548.84;1724297;83;21280;-70
2021/09/21 00:53:49;;;;;;;4.53;2.92;;;;;;;7.92;91.75;100550.98;1724451;81;21272;-70
2021/09/21 00:56:23;;;;;;;3.37;3.00;;;;;;;7.93;91.70;100549.19;1723770;83;21177;-70
2021/09/21 00:58:56;;;;;;;;;;;;;;;7.93;91.74;100551.80;1726381;83;21162;-69
2021/09/21 01:01:30;;;;;;;4.80;2.77;;;;;;;7.93;91.83;100557.84;1722733;83;20259;-69
2021/09/21 01:04:05;;;;;;;3.77;2.90;;;;;;;7.92;91.96;100555.36;1724295;83;21319;-70
2021/09/21 01:06:38;;;;;;;6.15;3.05;;;;;;;7.94;92.05;100560.83;1725747;83;21158;-69
2021/09/21 01:09:22;;;;;;;2.98;2.70;;;;;;;7.95;92.05;100563.77;1725413;83;21369;-69
2021/09/21 01:11:58;;;;;;;4.42;2.77;;;;;;;7.94;91.76;100559.52;1725337;83;21189;-69
2021/09/21 01:14:32;;;;;;;5.30;3.15;;;;;;;7.92;91.62;100564.02;1725308;83;21229;-69
2021/09/21 01:17:05;;;;;;;5.35;3.27;;;;;;;7.90;91.37;100571.12;1725678;83;21265;-69
2021/09/21 01:19:39;;;;;;;;;;;;;;;7.86;91.09;100571.43;1726417;83;21150;-69
2021/09/21 01:22:13;;;;;;;6.90;3.35;;;;;;;7.80;91.04;100566.67;1723896;83;20179;-69
2021/09/21 01:24:47;;;;;;;6.15;3.20;;;;;;;7.75;91.11;100574.83;1723743;83;21756;-69
2021/09/21 01:27:20;;;;;;;2.55;2.35;;;;;;;7.74;91.21;100573.16;1725278;83;21141;-69
2021/09/21 01:29:54;;;;;;;5.65;3.12;;;;;;;7.74;91.35;100571.05;1725682;83;21241;-69
2021/09/21 01:32:27;;;;;;;3.47;3.07;;;;;;;7.74;91.37;100568.44;1725594;83;21313;-69
2021/09/21 01:35:01;;;;;;;3.45;3.15;;;;;;;7.71;91.25;100559.06;1725245;83;21339;-69
2021/09/21 01:37:34;;;;;;;4.23;3.60;;;;;;;7.69;91.20;100561.41;1725893;83;21142;-70
2021/09/21 01:40:09;;;;;;;4.70;2.80;;;;;;;7.66;91.09;100555.95;1724498;83;21603;-70
2021/09/21 01:42:45;;;;;;;4.37;3.33;;;;;;;7.65;91.01;100552.97;1725382;83;21264;-69
2021/09/21 01:45:19;;;;;;;5.78;3.65;;;;;;;7.61;90.89;100564.57;1725171;83;21189;-69
2021/09/21 01:47:52;;;;;;;4.33;3.47;;;;;;;7.57;90.79;100551.38;1725793;83;21291;-69
2021/09/21 01:50:40;;;;;;;3.60;2.85;;;;;;;7.53;90.81;100544.73;1725438;83;21201;-69
2021/09/21 02:01:19;;;;;;;4.45;3.65;;;;;;;7.44;90.92;100550.14;1724539;83;21173;-69
2021/09/21 02:03:55;;;;;;;5.17;3.47;;;;;;;7.46;90.90;100546.11;1723994;83;21158;-69
2021/09/21 02:06:34;;;;;;;4.72;3.70;;;;;;;7.45;90.83;100549.18;1723795;83;21249;-69
2021/09/21 02:09:03;;;;;;;8.40;3.83;;;;;;;7.42;90.71;100557.23;1725370;83;21165;-69
2021/09/21 02:11:37;;;;;;;4.08;3.30;;;;;;;7.39;90.67;100557.45;1723868;83;21157;-69
2021/09/21 02:14:13;;;;;;;4.45;4.00;;;;;;;7.38;90.86;100562.74;1723960;83;21162;-69
2021/09/21 02:16:46;;;;;;;5.72;3.40;;;;;;;7.37;91.01;100563.23;1724527;83;21332;-69
2021/09/21 02:19:20;;;;;;;4.87;3.52;;;;;;;7.38;91.14;100560.98;1724073;83;21150;-69
2021/09/21 02:21:54;;;;;;;5.83;3.60;;;;;;;7.39;91.33;100550.94;1724667;83;21161;-69
2021/09/21 02:24:27;;;;;;;5.83;3.85;;;;;;;7.42;91.50;100552.48;1725649;83;21721;-69
2021/09/21 02:27:02;;;;;;;4.45;3.67;;;;;;;7.41;91.41;100546.91;1724828;83;21293;-69
2021/09/21 02:29:35;;;;;;;4.33;3.83;;;;;;;7.41;91.38;100552.11;1725562;83;21261;-69
2021/09/21 02:32:09;;;;;;;5.42;3.92;;;;;;;7.40;91.39;100564.80;1724550;83;21823;-69
2021/09/21 02:34:45;;;;;;;4.20;3.73;;;;;;;7.41;91.44;100559.93;1725886;83;21265;-69
2021/09/21 02:37:17;;;;;;;9.00;3.75;;;;;;;7.41;91.43;100556.86;1724398;83;21323;-69
2021/09/21 02:39:51;;;;;;;6.33;3.90;;;;;;;7.41;91.41;100556.86;1724484;83;21304;-70
2021/09/21 02:42:25;;;;;;;5.65;4.37;;;;;;;7.43;91.59;100554.14;1724632;83;21804;-69
2021/09/21 02:44:58;;;;;;;3.90;2.98;;;;;;;7.44;91.48;100554.05;1725448;83;21158;-70
2021/09/21 02:47:31;;;;;;;4.70;4.20;;;;;;;7.43;91.36;100548.46;1724542;83;21339;-70
2021/09/21 02:50:06;;;;;;;5.90;4.23;;;;;;;7.43;91.49;100543.72;1725670;83;21328;-70
2021/09/21 02:52:40;;;;;;;11.45;4.03;;;;;;;7.43;91.57;100547.16;1723810;83;21174;-70
2021/09/21 02:55:14;;;;;;;6.85;4.37;;;;;;;7.46;91.75;100549.55;1725739;83;21182;-68
2021/09/21 02:57:47;;;;;;;;;;;;;;;7.49;91.69;100553.72;1726286;83;21166;-69
2021/09/21 03:00:24;;;;;;;6.00;4.33;;;;;;;7.48;91.40;100570.27;1725728;83;20242;-69
2021/09/21 03:02:59;;;;;;;7.55;4.40;;;;;;;7.44;91.37;100568.38;1724387;83;21291;-69
2021/09/21 03:05:35;;;;;;;6.55;4.25;;;;;;;7.46;91.37;100575.60;1725775;83;21267;-69
2021/09/21 03:08:13;;;;;;;4.70;4.20;;;;;;;7.46;91.29;100580.81;1724215;83;21292;-69
2021/09/21 03:13:29;;;;;;;6.35;3.65;;;;;;;7.59;91.69;100572.13;1723817;83;21165;-69
2021/09/21 03:18:49;;;;;;;6.85;3.95;;;;;;;7.84;91.87;100558.98;1723858;83;21226;-69
2021/09/21 03:21:22;;;;;;;;;;;;;;;7.98;91.84;100563.56;1726469;83;21169;-69
2021/09/21 03:23:55;;;;;;;4.92;4.15;;;;;;;8.13;91.67;100573.34;1725499;83;20239;-69
2021/09/21 03:26:29;;;;;;;3.85;3.35;;;;;;;8.26;91.52;100574.58;1725813;83;21673;-68
2021/09/21 03:29:03;;;;;;;4.28;3.62;;;;;;;8.40;91.09;100570.04;1725602;83;21146;-69
2021/09/21 03:31:37;;;;;;;8.33;3.75;;;;;;;8.50;90.28;100570.98;1723823;83;21237;-68
2021/09/21 03:34:10;;;;;;;11.33;3.75;;;;;;;8.55;89.52;100566.76;1725850;83;21277;-68
2021/09/21 03:36:43;;;;;;;6.20;4.10;;;;;;;8.57;89.08;100566.97;1725844;83;21273;-69
2021/09/21 03:39:16;;;;;;;5.70;3.93;;;;;;;8.62;88.86;100560.13;1724916;83;21932;-68
2021/09/21 03:41:50;;;;;;;7.62;3.80;;;;;;;8.67;88.66;100547.53;1725680;83;21504;-68
2021/09/21 03:44:23;;;;;;;4.17;3.72;;;;;;;8.72;88.42;100557.16;1725696;83;21277;-68
2021/09/21 03:46:57;;;;;;;6.25;4.40;;;;;;;8.76;88.08;100561.21;1725607;83;21130;-68
2021/09/21 03:49:31;;;;;;;5.17;4.25;;;;;;;8.82;87.94;100556.81;1725589;83;21779;-69
2021/09/21 03:52:05;;;;;;;4.57;4.07;;;;;;;8.90;87.63;100550.54;1725439;83;21155;-68
2021/09/21 03:54:38;;;;;;;6.75;4.70;;;;;;;9.02;87.28;100547.45;1725295;83;21499;-69
2021/09/21 03:57:11;;;;;;;5.03;3.80;;;;;;;9.37;86.41;100546.81;1725440;83;21324;-70
2021/09/21 03:59:44;;;;;;;5.53;3.77;;;;;;;9.37;86.41;100546.81;1725424;83;21206;-70
2021/09/21 04:02:17;;;;;;;5.67;3.92;;;;;;;9.57;86.17;100546.08;1750926;81;21286;-70
2021/09/21 04:04:51;;;;;;;4.83;4.08;;;;;;;9.69;85.67;100549.02;1761918;81;21271;-69
2021/09/21 04:07:23;;;;;;;10.97;5.27;;;;;;;9.73;84.98;100554.34;1737815;81;21675;-69
2021/09/21 04:09:57;;;;;;;;;;;;;;;9.71;84.57;100569.33;1703293;84;21164;-70
2021/09/21 04:12:30;;;;;;;6.70;4.65;;;;;;;9.68;84.27;100563.50;1712537;83;20582;-68
2021/09/21 04:15:05;;;;;;;;;;;;;;;9.62;83.99;100568.77;1719925;83;21218;-69
2021/09/21 04:17:37;;;;;;;5.40;4.35;;;;;;;9.59;83.77;100567.69;1717986;83;20180;-69
2021/09/21 04:20:12;;;;;;;19.95;5.12;;;;;;;9.58;83.74;100569.13;1715826;83;21281;-70
2021/09/21 04:22:46;;;;;;;5.30;4.15;;;;;;;9.56;83.58;100558.78;1718233;83;21166;-70
2021/09/21 04:25:19;;;;;;;5.62;4.60;;;;;;;9.54;83.45;100563.77;1718637;83;21288;-68
2021/09/21 04:27:52;;;;;;;13.13;5.33;;;;;;;9.52;83.68;100564.38;1697021;83;21304;-69
2021/09/21 04:30:26;;;;;;;;;;;;;;;9.56;83.98;100560.56;1720334;83;21914;-69
2021/09/21 04:32:58;;;;;;;8.20;5.22;;;;;;;9.57;83.76;100555.23;1718329;83;20613;-69
2021/09/21 04:35:31;;;;;;;9.57;5.30;;;;;;;9.55;83.73;100554.99;1698812;83;21260;-69
2021/09/21 04:38:04;;;;;;;8.13;5.80;;;;;;;9.56;83.72;100565.78;1715230;83;21658;-69
2021/09/21 04:40:38;;;;;;;14.93;6.12;;;;;;;9.58;83.81;100564.71;1718384;82;21146;-69
2021/09/21 04:43:11;;;;;;;14.53;6.20;;;;;;;9.61;83.79;100550.56;1703578;82;21108;-70
2021/09/21 04:45:44;;;;;;;15.03;8.13;;;;;;;9.65;83.75;100556.73;1750325;82;21204;-68
2021/09/21 04:48:17;;;;;;;9.20;6.87;;;;;;;9.70;83.62;100549.83;1690480;84;21244;-69
2021/09/21 04:50:51;;;;;;;13.53;6.72;;;;;;;9.73;83.46;100548.28;1676984;83;21350;-69
2021/09/21 04:53:24;;;;;;;13.75;6.70;;;;;;;9.76;83.36;100546.27;1697437;84;21185;-69
2021/09/21 04:55:57;;;;;;;11.18;6.60;;;;;;;9.79;83.37;100534.23;1710919;82;21344;-68
2021/09/21 04:58:29;;;;;;;13.57;6.80;;;;;;;9.81;83.20;100537.58;1714095;82;21241;-68
2021/09/21 05:01:02;;;;;;;9.17;6.70;;;;;;;9.83;82.92;100541.36;1689909;83;21247;-70
2021/09/21 05:03:38;;;;;;;9.70;6.03;;;;;;;9.82;82.82;100538.37;1724899;81;21185;-68
2021/09/21 05:06:11;;;;;;;10.75;7.08;;;;;;;9.82;83.11;100537.08;1718223;81;21357;-60
2021/09/21 05:08:46;;;;;;;11.78;9.03;;;;;;;9.84;83.12;100533.88;1685789;84;21175;-61
2021/09/21 05:11:19;;;;;;;8.20;6.97;;;;;;;9.88;83.23;100523.52;1689490;83;21334;-63
2021/09/21 05:13:54;;;;;;;8.18;6.35;;;;;;;9.91;83.17;100533.73;1689216;83;22036;-63
2021/09/21 05:16:28;;;;;;;9.75;6.37;;;;;;;9.92;83.15;100541.91;1670250;84;21141;-63
2021/09/21 05:19:02;;;;;;;11.80;6.33;;;;;;;9.94;83.35;100544.77;1722691;81;21305;-69
2021/09/21 05:21:37;;;;;;;13.32;6.37;;;;;;;10.01;83.46;100555.08;1715941;81;21206;-69
2021/09/21 05:24:12;;;;;;;10.90;6.78;;;;;;;10.04;83.28;100559.23;1721708;81;21330;-68
2021/09/21 05:26:46;;;;;;;14.73;6.47;;;;;;;10.07;83.21;100561.60;1710551;81;21735;-69
2021/09/21 05:29:19;;;;;;;9.33;5.90;;;;;;;10.12;83.36;100555.08;1688394;83;21314;-68
2021/09/21 05:31:53;;;;;;;11.08;6.90;;;;;;;10.19;83.35;100550.16;1686448;83;22054;-70
2021/09/21 05:34:28;;;;;;;19.60;7.95;;;;;;;10.26;83.17;100563.56;1710366;82;21672;-67
2021/09/21 05:37:01;;;;;;;;;;;;;;;10.34;83.25;100558.54;1712115;82;21233;-68
2021/09/21 05:39:36;;;;;;;8.30;6.37;;;;;;;10.42;82.97;100555.63;1709690;82;20231;-68
2021/09/21 05:42:09;;;;;;;;;;;;;;;10.49;82.84;100555.46;1671579;84;21321;-68
2021/09/21 05:44:42;;;;;;;13.58;6.22;;;;;;;10.57;82.29;100567.91;1723565;81;20308;-65
2021/09/21 05:47:15;;;;;;;13.50;6.40;;;;;;;10.55;82.03;100572.45;1719637;81;21229;-64
2021/09/21 05:49:48;;;;;;;8.43;6.47;;;;;;;10.58;82.04;100569.08;1665804;84;21208;-62
2021/09/21 05:52:23;;;;;;;6.37;5.20;;;;;;;10.64;82.15;100563.83;1659680;84;21181;-65
2021/09/21 05:54:57;;;;;;;13.85;6.28;;;;;;;10.71;82.10;100563.66;1661169;84;21326;-67
2021/09/21 05:57:30;;;;;;;;;;;;;;;10.82;81.97;100563.56;1688030;83;21164;-67
2021/09/21 06:00:04;;;;;;;21.00;13.00;;;;;;;10.98;81.90;100572.28;1720109;81;20349;-64
2021/09/21 06:02:41;;;;;;;6.20;5.42;;;;;;;11.11;81.62;100566.32;1720743;81;21836;-65
2021/09/21 06:05:17;;;;;;;7.78;6.50;;;;;;;11.23;81.08;100555.62;1723919;81;21228;-64
2021/09/21 06:07:54;;;;;;;;;;;;;;;11.34;80.43;100558.63;1723181;83;21263;-62
2021/09/21 06:10:29;;;;;;;14.33;7.30;;;;;;;11.56;80.05;100554.97;1721949;81;20215;-63
2021/09/21 06:13:05;;;;;;;11.08;6.30;;;;;;;12.08;79.72;100556.75;1720496;83;21759;-68
2021/09/21 06:15:38;;;;;;;7.90;6.03;;;;;;;12.78;78.54;100545.87;1693627;83;22835;-68
2021/09/21 06:18:14;;;;;;;12.10;6.10;;;;;;;13.51;76.79;100541.57;1718811;81;21240;-67
2021/09/21 06:20:48;;;;;;;7.15;5.72;;;;;;;14.62;74.44;100531.36;1728604;81;21259;-70
2021/09/21 06:23:23;;;;;;;9.85;5.62;;;;;;;15.57;70.77;100533.81;1688946;83;21232;-70
2021/09/21 06:25:56;;;;;;;;;;;;;;;16.26;67.87;100540.83;1694234;83;21208;-70
2021/09/21 06:28:29;;;;;;;16.70;6.12;;;;;;;16.66;65.01;100543.95;1685954;83;20610;-70
2021/09/21 06:31:02;;;;;;;13.90;6.43;;;;;;;16.86;63.16;100536.48;1723832;81;21232;-69
2021/09/21 06:33:39;;;;;;;13.48;7.85;;;;;;;16.92;62.37;100541.08;1688013;83;21259;-69
2021/09/21 06:36:13;;;;;;;14.05;7.17;;;;;;;16.92;60.80;100541.08;1657041;84;21413;-69
2021/09/21 06:38:47;;;;;;;9.95;6.35;;;;;;;16.94;60.54;100547.02;1727617;81;21323;-70
2021/09/21 06:41:20;;;;;;;11.87;5.60;;;;;;;16.93;59.83;100542.73;1721004;81;21199;-68
2021/09/21 06:43:53;;;;;;;9.90;5.97;;;;;;;16.96;59.95;100539.23;1719280;81;21389;-67
2021/09/21 06:46:27;;;;;;;7.62;5.78;;;;;;;17.02;59.13;100537.74;1720839;81;21208;-67
2021/09/21 06:49:00;;;;;;;13.20;5.83;;;;;;;17.07;59.11;100536.25;1719156;81;21245;-66
2021/09/21 06:51:33;;;;;;;17.70;6.40;;;;;;;17.09;58.48;100532.09;1720768;81;21328;-71
2021/09/21 06:54:09;;;;;;;15.30;6.97;;;;;;;17.12;58.62;100533.92;1723615;81;21248;-66
2021/09/21 06:56:43;;;;;;;7.45;5.05;;;;;;;17.16;58.83;100532.56;1720916;81;21409;-65
2021/09/21 06:59:16;;;;;;;7.75;5.72;;;;;;;17.17;58.81;100530.75;1726655;81;21177;-67
2021/09/21 07:01:49;;;;;;;;;;;;;;;17.18;58.57;100527.92;1722903;81;22229;-68
2021/09/21 07:04:21;;;;;;;8.60;5.42;;;;;;;17.16;58.10;100525.13;1723744;81;20254;-72
2021/09/21 07:06:55;;;;;;;6.85;5.40;;;;;;;17.18;58.51;100522.63;1725364;81;21214;-66
2021/09/21 07:09:29;;;;;;;6.33;5.35;;;;;;;17.24;58.07;100523.78;1722432;81;21321;-67
2021/09/21 07:12:04;;;;;;;9.48;4.62;;;;;;;17.23;58.29;100526.91;1725848;81;21212;-61
2021/09/21 07:14:39;;;;;;;11.05;4.67;;;;;;;17.19;58.46;100524.30;1723416;81;21520;-66
2021/09/21 07:17:14;;;;;;;6.65;5.92;;;;;;;17.17;58.15;100518.84;1728018;81;21169;-63
2021/09/21 07:19:47;;;;;;;11.63;5.90;;;;;;;17.14;58.33;100528.44;1724006;81;21851;-65
2021/09/21 07:22:20;;;;;;;;;;;;;;;17.09;58.42;100530.77;1728940;81;21216;-74
2021/09/21 07:24:53;;;;;;;4.90;4.25;;;;;;;17.11;58.73;100530.09;1725608;81;20266;-68
2021/09/21 07:27:26;;;;;;;7.28;4.42;;;;;;;17.16;58.54;100528.59;1722930;81;21228;-67
2021/09/21 07:29:59;;;;;;;5.90;4.20;;;;;;;17.23;58.66;100524.77;1691992;83;21306;-63
2021/09/21 07:32:34;;;;;;;7.72;4.50;;;;;;;17.30;58.82;100519.94;1669758;83;21338;-65
2021/09/21 07:35:11;;;;;;;5.40;4.33;;;;;;;17.42;58.63;100518.55;1658167;84;21320;-63
2021/09/21 07:37:44;;;;;;;4.50;4.00;;;;;;;17.58;58.43;100518.98;1729498;83;21827;-62
2021/09/21 07:40:20;;;;;;;5.10;4.60;;;;;;;17.73;58.01;100525.67;1726448;81;21216;-69
2021/09/21 07:42:54;;;;;;;5.85;4.35;;;;;;;17.95;57.23;100520.89;1726263;81;21977;-65
2021/09/21 07:45:28;;;;;;;4.47;3.67;;;;;;;18.54;56.47;100514.77;1682439;83;21315;-65
2021/09/21 07:48:01;;;;;;;4.87;3.30;;;;;;;19.17;55.01;100503.62;1688946;83;21381;-66
2021/09/21 07:50:34;;;;;;;4.47;3.87;;;;;;;20.00;53.24;100500.44;1692104;83;21354;-70
2021/09/21 07:53:09;;;;;;;5.72;2.90;;;;;;;20.97;49.88;100498.72;1667981;84;21306;-68
2021/09/21 07:55:42;;;;;;;7.33;2.90;;;;;;;21.72;47.24;100499.92;1685406;83;21231;-68
2021/09/21 07:58:15;;;;;;;10.90;4.65;;;;;;;22.67;45.11;100503.05;1698826;82;21228;-68
2021/09/21 08:00:53;;;;;;;3.25;2.45;;;;;;;23.32;43.12;100490.00;1714338;82;21277;-62
2021/09/21 08:03:24;;;;;;;2.83;2.62;;;;;;;23.60;41.89;100491.00;1708089;83;21297;-70
2021/09/21 08:05:58;;;;;;;3.85;2.40;;;;;;;23.85;41.00;100491.89;1709829;82;21296;-71
2021/09/21 08:08:40;;;;;;;5.58;3.37;;;;;;;24.32;39.69;100486.48;1714820;82;21339;-70
2021/09/21 08:11:13;;;;;;;3.12;2.22;;;;;;;24.49;39.67;100490.25;1709690;82;21320;-73
2021/09/21 08:13:47;;;;;;;4.47;2.15;;;;;;;24.40;38.20;100483.55;1720135;82;21635;-70
2021/09/21 08:16:22;;;;;;;2.98;2.22;;;;;;;24.28;38.08;100476.77;1709007;82;21202;-71
2021/09/21 08:18:58;;;;;;;3.10;2.47;;;;;;;24.28;38.08;100476.77;1691500;83;21338;-69
2021/09/21 08:21:31;;;;;;;4.92;2.20;;;;;;;24.18;38.49;100476.95;1724298;81;22452;-76
2021/09/21 08:24:06;;;;;;;2.87;2.15;;;;;;;24.45;38.60;100478.36;1717736;81;21213;-71
2021/09/21 08:26:40;;;;;;;2.67;2.20;;;;;;;24.69;37.72;100479.62;1726220;81;21225;-69
2021/09/21 08:29:17;;;;;;;10.45;3.92;;;;;;;24.98;36.61;100475.42;1690431;83;21216;-72
2021/09/21 08:31:51;;;;;;;2.55;1.77;;;;;;;25.60;35.93;100474.76;1713572;82;21174;-72
2021/09/21 08:34:26;;;;;;;2.72;1.72;;;;;;;25.80;35.20;100470.73;1711734;83;21205;-69
2021/09/21 08:37:00;;;;;;;4.53;1.57;;;;;;;25.74;34.71;100472.17;1712472;82;21189;-72
2021/09/21 08:39:34;;;;;;;1.95;1.65;;;;;;;25.51;35.36;100466.75;1714235;82;21672;-70
2021/09/21 08:42:07;;;;;;;2.60;2.40;;;;;;;25.13;35.46;100465.14;1711575;82;21296;-74
2021/09/21 08:44:41;;;;;;;2.83;2.10;;;;;;;24.84;36.81;100459.76;1712420;82;21781;-69
2021/09/21 08:47:14;;;;;;;1.72;1.62;;;;;;;24.61;36.53;100460.37;1709565;82;21252;-70
2021/09/21 08:49:49;;;;;;;18.62;2.65;;;;;;;24.26;36.94;100459.29;1710594;82;22170;-67
2021/09/21 08:52:24;;;;;;;1.85;1.75;;;;;;;23.91;37.48;100461.59;1717674;82;21866;-68
2021/09/21 08:54:57;;;;;;;1.67;1.57;;;;;;;23.52;38.12;100461.88;1713845;82;21367;-63
2021/09/21 08:57:31;;;;;;;5.72;1.82;;;;;;;23.01;38.96;100460.05;1712252;82;21165;-66
2021/09/21 09:00:05;;;;;;;4.83;1.92;;;;;;;22.26;39.79;100463.27;1712222;82;21324;-69
2021/09/21 09:02:38;;;;;;;2.58;1.67;;;;;;;22.26;39.79;100463.27;1708673;82;21319;-66
2021/09/21 09:05:13;;;;;;;1.70;1.60;;;;;;;21.98;40.27;100456.83;1711105;82;22272;-65
2021/09/21 09:07:51;;;;;;;2.27;1.37;;;;;;;21.86;40.32;100453.13;1696476;82;21860;-64
2021/09/21 09:10:25;;;;;;;1.77;1.60;;;;;;;21.83;40.95;100461.49;1716075;82;22315;-66
2021/09/21 09:12:59;;;;;;;2.27;1.65;;;;;;;21.91;41.03;100459.17;1693896;83;22249;-68
2021/09/21 09:15:32;;;;;;;4.95;2.17;;;;;;;21.95;41.15;100452.41;1683552;84;21491;-68
2021/09/21 09:18:06;;;;;;;6.05;2.00;;;;;;;21.94;40.52;100456.11;1716073;82;21348;-68
2021/09/21 09:20:45;;;;;;;3.47;2.12;;;;;;;21.76;40.66;100456.67;1712373;82;21870;-64
2021/09/21 09:23:18;;;;;;;2.58;1.70;;;;;;;21.53;41.32;100457.56;1708688;82;21229;-63
2021/09/21 09:25:52;;;;;;;4.97;1.50;;;;;;;21.29;41.31;100449.63;1706309;83;21158;-64
2021/09/21 09:28:27;;;;;;;1.80;1.50;;;;;;;21.04;41.48;100449.00;1711149;82;21213;-63
2021/09/21 09:31:00;;;;;;;7.78;2.87;;;;;;;20.78;41.56;100447.84;1712336;82;21319;-62
2021/09/21 09:33:38;;;;;;;;;;;;;;;20.62;42.62;100447.34;1716239;82;21243;-62
2021/09/21 09:36:11;;;;;;;23.80;2.72;;;;;;;20.53;42.41;100449.36;1719807;83;20223;-66
2021/09/21 09:38:45;;;;;;;1.47;1.30;;;;;;;20.26;42.38;100450.69;1717770;81;21142;-64
2021/09/21 09:41:18;;;;;;;2.83;1.45;;;;;;;20.18;43.54;100450.28;1722798;83;21277;-66
2021/09/21 09:43:51;;;;;;;5.47;1.37;;;;;;;20.19;43.45;100458.59;1674738;84;21350;-63
2021/09/21 09:46:25;;;;;;;;;;;;;;;20.18;43.45;100449.78;1719123;81;21202;-66
2021/09/21 09:49:00;;;;;;;2.15;1.25;;;;;;;20.14;43.56;100453.86;1726108;81;20692;-63
2021/09/21 09:51:33;;;;;;;4.12;1.07;;;;;;;20.08;43.53;100449.83;1716967;81;21222;-62
2021/09/21 09:54:07;;;;;;;5.72;1.90;;;;;;;19.95;43.58;100447.88;1721062;81;21327;-68
2021/09/21 09:56:41;;;;;;;3.70;1.40;;;;;;;19.87;43.64;100448.52;1723257;81;21210;-64
2021/09/21 09:59:15;;;;;;;;;;;;;;;19.78;44.17;100446.98;1724229;83;21219;-65
2021/09/21 10:01:48;;;;;;;4.53;1.67;;;;;;;19.91;44.21;100439.15;1725563;81;20291;-63
2021/09/21 10:04:23;;;;;;;3.65;1.12;;;;;;;20.11;44.47;100434.80;1667947;84;21365;-75
2021/09/21 10:06:58;;;;;;;3.10;1.20;;;;;;;20.31;44.38;100434.98;1719564;81;21300;-70
2021/09/21 10:09:31;;;;;;;6.30;1.50;;;;;;;20.40;44.03;100437.29;1685156;84;21336;-67
2021/09/21 10:12:07;;;;;;;3.42;1.42;;;;;;;20.39;43.73;100437.50;1653370;84;21263;-68
2021/09/21 10:14:42;;;;;;;2.87;1.55;;;;;;;20.28;43.43;100439.34;1689985;83;21383;-71
2021/09/21 10:17:26;;;;;;;6.85;1.60;;;;;;;20.10;43.89;100440.64;1709108;82;21186;-67
2021/09/21 10:20:03;;;;;;;3.62;1.90;;;;;;;20.01;44.07;100439.65;1709567;82;21363;-70
2021/09/21 10:22:36;;;;;;;13.25;4.33;;;;;;;19.96;43.98;100448.70;1714691;83;21327;-70
2021/09/21 10:25:11;;;;;;;17.62;6.30;;;;;;;19.83;44.27;100447.24;1711811;82;21245;-66
2021/09/21 10:27:44;;;;;;;4.95;2.30;;;;;;;19.67;44.59;100448.34;1716700;82;22225;-68
2021/09/21 10:30:22;;;;;;;2.60;2.08;;;;;;;19.62;45.41;100443.27;1719338;82;21327;-69
2021/09/21 10:32:56;;;;;;;3.92;2.02;;;;;;;19.63;45.43;100444.39;1715806;82;21300;-67
2021/09/21 10:35:31;;;;;;;2.15;1.95;;;;;;;19.67;45.71;100447.51;1714432;82;21174;-68
2021/09/21 10:38:07;;;;;;;2.35;1.98;;;;;;;19.66;45.71;100450.66;1712671;82;21902;-66
2021/09/21 10:40:44;;;;;;;5.10;2.10;;;;;;;19.60;46.14;100447.45;1706402;82;21564;-67
2021/09/21 10:43:35;;;;;;;3.87;1.77;;;;;;;19.56;46.19;100446.70;1711290;82;21304;-64
2021/09/21 10:46:17;;;;;;;2.80;2.20;;;;;;;19.50;46.08;100446.94;1697497;82;21292;-67
2021/09/21 10:48:54;;;;;;;2.50;2.30;;;;;;;19.41;46.66;100444.92;1715249;82;21274;-69
2021/09/21 10:51:31;;;;;;;9.98;7.72;;;;;;;19.30;46.62;100448.02;1710152;82;21225;-70
2021/09/21 10:54:06;;;;;;;3.27;2.60;;;;;;;19.17;46.62;100443.08;1705862;82;21945;-69
2021/09/21 10:56:40;;;;;;;2.58;2.33;;;;;;;18.99;46.72;100447.45;1714596;82;21332;-67
2021/09/21 10:59:19;;;;;;;3.70;2.10;;;;;;;18.75;47.18;100443.77;1718784;82;21222;-69
2021/09/21 11:01:56;;;;;;;3.17;2.15;;;;;;;18.53;47.78;100448.68;1710438;83;21332;-66
2021/09/21 11:04:41;;;;;;;6.97;3.83;;;;;;;18.28;48.38;100449.89;1720464;82;21794;-65
2021/09/21 11:07:15;;;;;;;8.33;3.20;;;;;;;18.03;48.54;100452.77;1711194;82;21217;-69
2021/09/21 11:09:54;;;;;;;9.40;4.42;;;;;;;17.77;49.31;100457.62;1713608;82;21296;-68
2021/09/21 11:12:31;;;;;;;7.33;3.20;;;;;;;17.58;49.84;100453.31;1715959;82;21324;-66
2021/09/21 11:15:09;;;;;;;4.00;2.52;;;;;;;17.38;50.40;100453.74;1712875;83;21292;-64
2021/09/21 11:17:43;;;;;;;5.28;2.87;;;;;;;17.29;50.87;100453.97;1716546;82;21828;-67
2021/09/21 11:20:17;;;;;;;4.28;2.85;;;;;;;17.20;51.12;100454.98;1713636;82;21224;-71
2021/09/21 11:22:51;;;;;;;4.50;2.87;;;;;;;17.17;51.58;100448.73;1714020;82;21324;-69
2021/09/21 11:25:24;;;;;;;4.15;2.50;;;;;;;17.13;51.49;100450.89;1710509;82;21312;-61
2021/09/21 11:27:57;;;;;;;;;;;;;;;17.07;51.76;100446.31;1727195;81;21240;-71
2021/09/21 11:30:31;;;;;;;4.87;2.92;;;;;;;17.04;51.63;100445.81;1718159;83;20306;-70
2021/09/21 11:33:16;;;;;;;12.75;4.05;;;;;;;17.00;51.86;100448.00;1716176;81;21307;-64
2021/09/21 11:35:53;;;;;;;5.45;4.03;;;;;;;17.02;52.31;100446.00;1726317;81;21846;-68
2021/09/21 11:38:30;;;;;;;14.13;4.65;;;;;;;17.09;52.23;100446.13;1688008;83;21321;-70
2021/09/21 11:41:03;;;;;;;15.40;5.65;;;;;;;17.14;52.12;100445.11;1671972;83;21365;-69
2021/09/21 11:43:38;;;;;;;8.53;3.25;;;;;;;17.23;52.48;100446.22;1667334;84;21307;-66
2021/09/21 11:46:15;;;;;;;6.55;3.42;;;;;;;17.32;52.41;100446.98;1708486;83;21237;-68
2021/09/21 11:48:55;;;;;;;9.85;3.62;;;;;;;17.38;52.15;100446.30;1721855;82;21213;-68
2021/09/21 11:51:30;;;;;;;5.92;2.80;;;;;;;17.38;52.09;100441.83;1714525;81;21343;-70
2021/09/21 11:54:06;;;;;;;4.62;2.72;;;;;;;17.41;52.10;100438.02;1715598;82;21214;-72
2021/09/21 11:56:42;;;;;;;;;;;;;;;17.41;51.83;100436.17;1723377;82;21303;-70
2021/09/21 11:59:17;;;;;;;8.13;3.90;;;;;;;17.40;51.99;100431.06;1711616;82;20275;-66
2021/09/21 12:01:54;;;;;;;12.18;2.98;;;;;;;17.38;52.10;100429.09;1713195;82;21936;-71
2021/09/21 12:04:31;;;;;;;9.40;3.17;;;;;;;17.40;51.72;100424.45;1709576;82;21890;-73
2021/09/21 12:07:05;;;;;;;3.83;2.35;;;;;;;17.40;51.90;100431.89;1694850;82;21198;-69
2021/09/21 12:09:38;;;;;;;5.28;2.35;;;;;;;17.35;51.94;100426.79;1709444;82;21863;-70
2021/09/21 12:12:21;;;;;;;5.85;2.80;;;;;;;17.31;52.29;100425.50;1712751;82;21296;-70
2021/09/21 12:15:01;;;;;;;5.92;3.65;;;;;;;17.29;52.43;100430.16;1713623;82;21189;-71
2021/09/21 12:17:45;;;;;;;7.00;3.05;;;;;;;17.26;52.52;100430.00;1715889;82;21182;-69